createdAt,value
2019-06-26T00:00:36.549Z,84.80
2019-06-26T00:03:07.334Z,84.60
2019-06-26T00:05:36.905Z,84.30
2019-06-26T00:08:06.667Z,84.40
2019-06-26T00:10:36.296Z,85.40
2019-06-26T00:13:05.950Z,86.30
2019-06-26T00:15:35.535Z,86.30
2019-06-26T00:18:06.234Z,85.80
2019-06-26T00:20:35.832Z,85.40
2019-06-26T00:23:05.413Z,85.40
2019-06-26T00:25:34.999Z,85.20
2019-06-26T00:28:04.672Z,84.70
2019-06-26T00:30:34.271Z,84.50
2019-06-26T00:33:03.847Z,83.90
2019-06-26T00:35:33.573Z,83.60
2019-06-26T00:38:03.166Z,83.90
2019-06-26T00:40:32.760Z,85.00
2019-06-26T00:43:02.350Z,84.90
2019-06-26T00:45:31.915Z,84.20
2019-06-26T00:48:01.508Z,84.40
2019-06-26T00:50:31.085Z,84.40
2019-06-26T00:53:00.694Z,84.80
2019-06-26T00:55:30.268Z,84.50
2019-06-26T00:57:59.847Z,85.00
2019-06-26T01:00:34.024Z,84.60
2019-06-26T01:03:03.598Z,85.20
2019-06-26T01:05:33.175Z,85.40
2019-06-26T01:08:02.771Z,85.30
2019-06-26T01:10:32.342Z,85.00
2019-06-26T01:13:03.498Z,84.90
2019-06-26T01:15:33.074Z,84.70
2019-06-26T01:18:02.670Z,85.20
2019-06-26T01:20:32.241Z,85.60
2019-06-26T01:23:02.964Z,85.70
2019-06-26T01:25:32.535Z,85.90
2019-06-26T01:28:02.122Z,86.20
2019-06-26T01:30:31.703Z,85.90
2019-06-26T01:33:01.283Z,85.70
2019-06-26T01:35:30.951Z,86.20
2019-06-26T01:38:00.521Z,86.70
2019-06-26T01:40:30.152Z,86.10
2019-06-26T01:42:59.702Z,86.60
2019-06-26T01:45:29.282Z,87.00
2019-06-26T01:47:58.866Z,87.40
2019-06-26T01:50:28.445Z,87.50
2019-06-26T01:52:58.030Z,87.70
2019-06-26T01:55:27.611Z,87.60
2019-06-26T01:57:57.196Z,87.50
2019-06-26T02:00:27.106Z,87.10
2019-06-26T02:02:58.038Z,86.50
2019-06-26T02:05:27.654Z,86.50
2019-06-26T02:07:57.215Z,86.20
2019-06-26T02:10:26.809Z,86.20
2019-06-26T02:12:56.509Z,87.10
2019-06-26T02:15:26.215Z,87.20
2019-06-26T02:17:55.795Z,86.70
2019-06-26T02:20:25.413Z,87.30
2019-06-26T02:22:55.019Z,87.10
2019-06-26T02:25:24.639Z,87.60
2019-06-26T02:27:54.261Z,87.90
2019-06-26T02:30:23.836Z,88.30
2019-06-26T02:32:53.425Z,88.30
2019-06-26T02:35:23.016Z,88.90
2019-06-26T02:37:52.617Z,89.40
2019-06-26T02:40:23.610Z,89.50
2019-06-26T02:42:53.194Z,90.00
2019-06-26T02:45:22.780Z,90.30
2019-06-26T02:47:52.357Z,90.40
2019-06-26T02:50:21.976Z,89.30
2019-06-26T02:52:51.522Z,89.40
2019-06-26T02:55:21.139Z,89.70
2019-06-26T02:57:50.690Z,90.00
2019-06-26T03:00:21.917Z,90.30
2019-06-26T03:05:26.650Z,90.40
2019-06-26T03:07:56.214Z,90.20
2019-06-26T03:10:25.789Z,90.20
2019-06-26T03:12:55.383Z,90.30
2019-06-26T03:15:25.032Z,90.50
2019-06-26T03:17:55.920Z,91.00
2019-06-26T03:20:30.152Z,90.50
2019-06-26T03:22:59.806Z,90.50
2019-06-26T03:25:29.475Z,90.30
2019-06-26T03:27:59.057Z,90.60
2019-06-26T03:30:28.706Z,90.40
2019-06-26T03:32:58.294Z,90.40
2019-06-26T03:35:27.878Z,90.40
2019-06-26T03:37:57.467Z,90.60
2019-06-26T03:40:27.218Z,90.20
2019-06-26T03:42:56.774Z,90.60
2019-06-26T03:45:26.671Z,90.30
2019-06-26T03:47:56.407Z,90.40
2019-06-26T03:50:26.101Z,90.90
2019-06-26T03:52:55.758Z,90.70
2019-06-26T03:55:25.407Z,91.00
2019-06-26T03:57:54.998Z,91.40
2019-06-26T04:00:32.016Z,90.60
2019-06-26T04:03:01.599Z,90.20
2019-06-26T04:05:31.180Z,89.80
2019-06-26T04:08:00.748Z,90.00
2019-06-26T04:10:30.335Z,90.00
2019-06-26T04:12:59.929Z,89.70
2019-06-26T04:15:41.292Z,90.20
2019-06-26T04:18:00.875Z,89.30
2019-06-26T04:20:30.464Z,89.80
2019-06-26T04:23:00.054Z,89.60
2019-06-26T04:25:29.623Z,89.70
2019-06-26T04:27:59.211Z,89.50
2019-06-26T04:30:28.779Z,88.90
2019-06-26T04:32:58.550Z,88.90
2019-06-26T04:35:28.139Z,88.90
2019-06-26T04:37:57.719Z,89.20
2019-06-26T04:40:27.299Z,90.00
2019-06-26T04:42:56.876Z,90.40
2019-06-26T04:45:26.514Z,90.00
2019-06-26T04:47:56.087Z,89.30
2019-06-26T04:50:27.798Z,88.60
2019-06-26T04:52:57.410Z,88.50
2019-06-26T04:55:26.995Z,88.80
2019-06-26T04:57:56.562Z,88.60
2019-06-26T05:00:26.796Z,89.70
2019-06-26T05:02:56.368Z,89.70
2019-06-26T05:05:38.965Z,89.80
2019-06-26T05:07:57.251Z,89.10
2019-06-26T05:10:26.828Z,88.60
2019-06-26T05:12:56.430Z,88.30
2019-06-26T05:15:26.000Z,87.30
2019-06-26T05:17:55.627Z,87.10
2019-06-26T05:20:25.186Z,86.80
2019-06-26T05:22:54.770Z,87.40
2019-06-26T05:25:24.398Z,86.50
2019-06-26T05:27:53.966Z,86.40
2019-06-26T05:30:24.660Z,85.90
2019-06-26T05:32:54.250Z,85.90
2019-06-26T05:35:23.971Z,85.80
2019-06-26T05:37:54.993Z,86.10
2019-06-26T05:40:24.688Z,85.90
2019-06-26T05:42:54.293Z,85.90
2019-06-26T05:45:24.073Z,85.70
2019-06-26T05:47:53.674Z,85.70
2019-06-26T05:50:23.757Z,85.60
2019-06-26T05:52:53.425Z,85.30
2019-06-26T05:55:24.192Z,85.20
2019-06-26T05:57:53.762Z,85.00
2019-06-26T06:00:23.957Z,85.00
2019-06-26T06:02:54.111Z,84.80
2019-06-26T06:05:23.944Z,84.80
2019-06-26T06:07:53.656Z,84.70
2019-06-26T06:10:24.842Z,84.70
2019-06-26T06:12:54.428Z,84.50
2019-06-26T06:15:24.018Z,84.50
2019-06-26T06:17:53.596Z,84.60
2019-06-26T06:20:30.508Z,84.60
2019-06-26T06:23:00.103Z,85.00
2019-06-26T06:25:31.177Z,85.10
2019-06-26T06:28:02.026Z,84.60
2019-06-26T06:30:31.614Z,84.30
2019-06-26T06:33:01.342Z,84.40
2019-06-26T06:35:30.886Z,84.00
2019-06-26T06:38:00.492Z,83.60
2019-06-26T06:40:30.075Z,83.40
2019-06-26T06:42:59.654Z,83.40
2019-06-26T06:45:29.546Z,83.20
2019-06-26T06:48:00.307Z,82.60
2019-06-26T06:50:30.971Z,82.90
2019-06-26T06:53:00.517Z,82.70
2019-06-26T06:55:30.095Z,82.60
2019-06-26T06:57:59.664Z,82.10
2019-06-26T07:00:29.406Z,81.90
2019-06-26T07:02:58.974Z,81.70
2019-06-26T07:05:28.565Z,81.80
2019-06-26T07:07:58.140Z,81.70
2019-06-26T07:10:27.711Z,81.60
2019-06-26T07:12:57.304Z,81.50
2019-06-26T07:15:28.107Z,81.20
2019-06-26T07:17:57.685Z,81.00
2019-06-26T07:20:27.265Z,80.70
2019-06-26T07:22:58.157Z,80.60
2019-06-26T07:25:27.822Z,80.20
2019-06-26T07:27:57.397Z,80.00
2019-06-26T07:30:27.096Z,79.70
2019-06-26T07:32:56.688Z,79.80
2019-06-26T07:35:26.408Z,79.70
2019-06-26T07:37:59.879Z,79.10
2019-06-26T07:40:27.348Z,78.90
2019-06-26T07:42:56.939Z,78.60
2019-06-26T07:45:27.153Z,78.50
2019-06-26T07:47:57.732Z,78.50
2019-06-26T07:50:27.297Z,78.30
2019-06-26T07:52:56.876Z,78.50
2019-06-26T07:55:26.467Z,78.30
2019-06-26T07:57:56.042Z,78.20
2019-06-26T08:00:25.695Z,78.00
2019-06-26T08:02:56.590Z,77.90
2019-06-26T08:05:26.173Z,77.80
2019-06-26T08:07:57.854Z,77.40
2019-06-26T08:10:27.422Z,77.90
2019-06-26T08:12:57.038Z,77.50
2019-06-26T08:15:26.616Z,77.30
2019-06-26T08:18:00.950Z,77.30
2019-06-26T08:20:27.500Z,77.30
2019-06-26T08:22:57.108Z,76.80
2019-06-26T08:25:26.690Z,77.60
2019-06-26T08:27:56.260Z,77.60
2019-06-26T08:30:26.200Z,77.40
2019-06-26T08:32:55.846Z,77.50
2019-06-26T08:35:25.475Z,77.30
2019-06-26T08:38:09.017Z,77.20
2019-06-26T08:40:26.351Z,77.30
2019-06-26T08:42:56.220Z,77.10
2019-06-26T08:45:25.864Z,77.20
2019-06-26T08:47:55.562Z,76.90
2019-06-26T08:50:25.281Z,77.30
2019-06-26T08:52:54.853Z,77.30
2019-06-26T08:55:24.440Z,76.80
2019-06-26T08:57:54.013Z,76.70
2019-06-26T09:00:23.911Z,76.40
2019-06-26T09:02:53.495Z,76.40
2019-06-26T09:05:23.205Z,76.70
2019-06-26T09:07:52.965Z,76.40
2019-06-26T09:10:22.661Z,75.90
2019-06-26T09:12:55.206Z,75.80
2019-06-26T09:15:24.759Z,76.20
2019-06-26T09:17:55.586Z,76.00
2019-06-26T09:20:29.727Z,75.40
2019-06-26T09:22:59.308Z,74.90
2019-06-26T09:25:28.892Z,74.50
2019-06-26T09:27:58.986Z,74.60
2019-06-26T09:30:28.635Z,74.40
2019-06-26T09:32:58.215Z,74.40
2019-06-26T09:35:27.810Z,74.70
2019-06-26T09:37:58.479Z,74.60
2019-06-26T09:40:31.624Z,73.80
2019-06-26T09:42:59.359Z,73.40
2019-06-26T09:45:29.033Z,73.90
2019-06-26T09:47:58.671Z,73.20
2019-06-26T09:50:29.364Z,73.80
2019-06-26T09:52:58.900Z,73.70
2019-06-26T09:55:33.522Z,73.70
2019-06-26T09:58:03.118Z,73.70
2019-06-26T10:00:33.534Z,73.00
2019-06-26T10:03:03.149Z,74.10
2019-06-26T10:05:32.741Z,75.20
2019-06-26T10:08:02.362Z,75.00
2019-06-26T10:10:31.929Z,74.30
2019-06-26T10:13:01.504Z,74.60
2019-06-26T10:15:31.082Z,73.50
2019-06-26T10:18:00.678Z,72.60
2019-06-26T10:20:31.719Z,73.00
2019-06-26T10:23:01.258Z,71.70
2019-06-26T10:25:30.939Z,71.40
2019-06-26T10:28:00.496Z,71.20
2019-06-26T10:30:30.082Z,71.50
2019-06-26T10:33:00.427Z,71.80
2019-06-26T10:35:30.017Z,71.80
2019-06-26T10:37:59.589Z,70.90
2019-06-26T10:40:30.696Z,70.30
2019-06-26T10:43:00.491Z,68.50
2019-06-26T10:45:30.071Z,68.60
2019-06-26T10:48:01.300Z,68.10
2019-06-26T10:50:30.900Z,67.80
2019-06-26T10:53:00.468Z,67.60
2019-06-26T10:55:30.051Z,67.20
2019-06-26T10:57:59.633Z,67.20
2019-06-26T11:00:30.720Z,66.40
2019-06-26T11:03:00.303Z,67.30
2019-06-26T11:05:29.879Z,66.80
2019-06-26T11:07:59.467Z,66.70
2019-06-26T11:10:29.101Z,66.80
2019-06-26T11:12:58.647Z,65.80
2019-06-26T11:15:28.235Z,65.80
2019-06-26T11:17:59.357Z,65.20
2019-06-26T11:20:29.005Z,65.00
2019-06-26T11:22:58.579Z,64.30
2019-06-26T11:25:28.193Z,62.30
2019-06-26T11:27:59.350Z,62.80
2019-06-26T11:30:29.249Z,62.20
2019-06-26T11:32:58.855Z,62.60
2019-06-26T11:35:28.583Z,61.00
2019-06-26T11:37:58.149Z,60.50
2019-06-26T11:40:29.269Z,60.40
2019-06-26T11:42:58.844Z,61.70
2019-06-26T11:45:28.521Z,61.00
2019-06-26T11:47:58.095Z,60.40
2019-06-26T11:50:27.805Z,61.20
2019-06-26T11:52:57.431Z,62.30
2019-06-26T11:55:27.051Z,61.00
2019-06-26T11:57:57.939Z,61.00
2019-06-26T12:00:29.043Z,60.10
2019-06-26T12:02:58.689Z,60.00
2019-06-26T12:05:28.280Z,59.90
2019-06-26T12:07:57.854Z,59.00
2019-06-26T12:10:27.428Z,57.40
2019-06-26T12:12:57.020Z,57.10
2019-06-26T12:15:26.968Z,57.40
2019-06-26T12:17:56.600Z,56.70
2019-06-26T12:20:26.463Z,56.40
2019-06-26T12:22:56.156Z,56.60
2019-06-26T12:25:25.729Z,55.50
2019-06-26T12:27:55.998Z,55.80
2019-06-26T12:30:26.097Z,54.80
2019-06-26T12:33:02.759Z,54.30
2019-06-26T12:35:27.003Z,54.60
2019-06-26T12:37:56.608Z,54.60
2019-06-26T12:40:26.160Z,53.80
2019-06-26T12:42:55.997Z,54.30
2019-06-26T12:45:26.271Z,53.10
2019-06-26T12:47:57.416Z,53.20
2019-06-26T12:50:35.184Z,50.60
2019-06-26T12:52:59.877Z,49.20
2019-06-26T12:55:32.712Z,48.80
2019-06-26T12:58:12.601Z,47.60
2019-06-26T13:00:32.079Z,47.40
2019-06-26T13:03:01.658Z,47.80
2019-06-26T13:05:32.655Z,46.40
2019-06-26T13:08:02.255Z,45.50
2019-06-26T13:10:45.016Z,45.80
2019-06-26T13:13:03.119Z,45.10
2019-06-26T13:15:32.699Z,46.10
2019-06-26T13:18:02.372Z,46.60
2019-06-26T13:20:31.970Z,45.80
2019-06-26T13:23:01.542Z,45.20
2019-06-26T13:25:31.099Z,44.20
2019-06-26T13:28:00.674Z,43.30
2019-06-26T13:30:40.846Z,42.60
2019-06-26T13:33:12.764Z,41.80
2019-06-26T13:35:42.381Z,43.00
2019-06-26T13:38:11.967Z,42.30
2019-06-26T13:40:41.547Z,42.10
2019-06-26T13:43:12.895Z,42.70
2019-06-26T13:45:42.572Z,42.20
2019-06-26T13:48:12.147Z,41.40
2019-06-26T13:50:41.870Z,41.10
2019-06-26T13:53:11.464Z,40.80
2019-06-26T13:55:42.835Z,41.50
2019-06-26T13:58:12.421Z,42.90
2019-06-26T14:00:42.006Z,43.30
2019-06-26T14:03:11.577Z,43.10
2019-06-26T14:05:41.178Z,41.00
2019-06-26T14:08:10.824Z,40.00
2019-06-26T14:10:40.466Z,39.70
2019-06-26T14:13:10.052Z,39.30
2019-06-26T14:15:39.626Z,39.20
2019-06-26T14:18:09.296Z,38.80
2019-06-26T14:20:38.876Z,38.50
2019-06-26T14:23:08.446Z,38.40
2019-06-26T14:25:38.600Z,37.90
2019-06-26T14:28:09.876Z,37.80
2019-06-26T14:30:39.527Z,38.50
2019-06-26T14:33:10.885Z,37.90
2019-06-26T14:35:40.464Z,37.90
2019-06-26T14:38:10.043Z,37.80
2019-06-26T14:40:39.619Z,37.90
2019-06-26T14:43:09.200Z,38.00
2019-06-26T14:45:38.802Z,37.50
2019-06-26T14:48:08.389Z,37.50
2019-06-26T14:50:38.111Z,38.00
2019-06-26T14:53:07.787Z,38.90
2019-06-26T14:55:37.315Z,39.80
2019-06-26T14:58:06.926Z,39.90
2019-06-26T15:00:36.500Z,39.10
2019-06-26T15:03:06.087Z,38.10
2019-06-26T15:05:35.669Z,37.50
2019-06-26T15:08:05.240Z,37.30
2019-06-26T15:10:34.834Z,37.00
2019-06-26T15:13:04.474Z,37.00
2019-06-26T15:15:34.065Z,37.10
2019-06-26T15:18:03.699Z,36.80
2019-06-26T15:20:34.073Z,37.90
2019-06-26T15:23:03.708Z,37.70
2019-06-26T15:25:33.298Z,38.40
2019-06-26T15:28:02.944Z,38.40
2019-06-26T15:30:32.483Z,38.60
2019-06-26T15:33:02.098Z,39.10
2019-06-26T15:35:31.678Z,39.70
2019-06-26T15:38:01.263Z,41.30
2019-06-26T15:40:30.924Z,41.50
2019-06-26T15:43:01.513Z,42.60
2019-06-26T15:45:31.094Z,43.40
2019-06-26T15:48:00.675Z,43.20
2019-06-26T15:50:30.259Z,44.00
2019-06-26T15:52:59.942Z,44.30
2019-06-26T15:55:29.527Z,45.00
2019-06-26T15:57:59.114Z,46.10
2019-06-26T16:00:29.779Z,46.40
2019-06-26T16:03:02.181Z,46.70
2019-06-26T16:05:34.767Z,47.90
2019-06-26T16:08:05.155Z,47.50
2019-06-26T16:10:35.644Z,46.60
2019-06-26T16:13:06.066Z,46.90
2019-06-26T16:15:36.643Z,46.80
2019-06-26T16:18:09.274Z,47.30
2019-06-26T16:20:38.849Z,48.60
2019-06-26T16:23:08.433Z,49.30
2019-06-26T16:25:38.096Z,49.80
2019-06-26T16:28:13.280Z,50.20
2019-06-26T16:30:42.868Z,51.50
2019-06-26T16:33:12.449Z,50.90
2019-06-26T16:35:42.043Z,50.80
2019-06-26T16:38:11.644Z,50.40
2019-06-26T16:40:41.238Z,50.60
2019-06-26T16:43:10.839Z,50.50
2019-06-26T16:45:40.431Z,50.80
2019-06-26T16:48:10.002Z,50.80
2019-06-26T16:50:39.595Z,51.50
2019-06-26T16:53:09.246Z,51.80
2019-06-26T16:55:38.844Z,51.90
2019-06-26T16:58:08.430Z,52.50
2019-06-26T17:00:38.000Z,52.40
2019-06-26T17:03:07.609Z,52.60
2019-06-26T17:05:37.186Z,53.10
2019-06-26T17:08:06.840Z,53.50
2019-06-26T17:10:36.440Z,53.90
2019-06-26T17:13:06.085Z,54.70
2019-06-26T17:15:37.410Z,54.70
2019-06-26T17:18:07.040Z,55.00
2019-06-26T17:20:36.619Z,55.30
2019-06-26T17:23:07.056Z,55.60
2019-06-26T17:25:36.659Z,56.10
2019-06-26T17:28:07.555Z,56.30
2019-06-26T17:30:37.138Z,56.70
2019-06-26T17:33:06.734Z,55.60
2019-06-26T17:35:36.394Z,56.00
2019-06-26T17:38:05.985Z,55.90
2019-06-26T17:40:35.557Z,55.80
2019-06-26T17:43:12.240Z,55.60
2019-06-26T17:45:38.158Z,55.90
2019-06-26T17:48:07.810Z,56.10
2019-06-26T17:50:37.393Z,56.20
2019-06-26T17:53:20.584Z,56.20
2019-06-26T17:55:38.293Z,56.50
2019-06-26T17:58:07.887Z,56.70
2019-06-26T18:00:37.607Z,57.10
2019-06-26T18:03:07.206Z,57.30
2019-06-26T18:05:36.789Z,57.30
2019-06-26T18:08:06.463Z,57.90
2019-06-26T18:10:36.086Z,57.90
2019-06-26T18:13:05.670Z,57.60
2019-06-26T18:15:35.256Z,58.20
2019-06-26T18:18:04.844Z,58.70
2019-06-26T18:20:34.431Z,59.00
2019-06-26T18:23:07.637Z,59.20
2019-06-26T18:25:35.319Z,59.30
2019-06-26T18:28:04.980Z,59.30
2019-06-26T18:30:34.562Z,59.40
2019-06-26T18:33:04.159Z,59.90
2019-06-26T18:35:33.748Z,59.80
2019-06-26T18:38:03.358Z,59.40
2019-06-26T18:40:32.939Z,59.40
2019-06-26T18:43:03.752Z,59.30
2019-06-26T18:45:35.773Z,59.90
2019-06-26T18:48:05.465Z,60.00
2019-06-26T18:50:38.554Z,61.00
2019-06-26T18:53:09.376Z,61.20
2019-06-26T18:55:38.958Z,61.30
2019-06-26T18:58:08.626Z,62.20
2019-06-26T19:00:38.226Z,62.50
2019-06-26T19:03:09.072Z,64.10
2019-06-26T19:05:38.605Z,63.80
2019-06-26T19:08:08.185Z,63.60
2019-06-26T19:10:37.803Z,64.10
2019-06-26T19:13:07.370Z,64.90
2019-06-26T19:15:37.034Z,64.60
2019-06-26T19:18:06.613Z,65.00
2019-06-26T19:20:37.243Z,65.20
2019-06-26T19:23:06.765Z,65.20
2019-06-26T19:25:36.359Z,65.70
2019-06-26T19:28:06.013Z,66.40
2019-06-26T19:30:35.608Z,66.70
2019-06-26T19:33:05.600Z,66.70
2019-06-26T19:35:35.181Z,66.50
2019-06-26T19:38:04.779Z,67.10
2019-06-26T19:40:34.386Z,67.70
2019-06-26T19:43:04.044Z,68.30
2019-06-26T19:45:33.659Z,68.30
2019-06-26T19:48:03.280Z,68.70
2019-06-26T19:50:32.871Z,69.00
2019-06-26T19:53:02.536Z,69.20
2019-06-26T19:55:33.181Z,69.10
2019-06-26T19:58:02.767Z,69.20
2019-06-26T20:00:32.350Z,69.60
2019-06-26T20:03:01.935Z,69.80
2019-06-26T20:05:31.521Z,70.30
2019-06-26T20:08:01.121Z,69.80
2019-06-26T20:10:30.705Z,70.20
2019-06-26T20:13:01.809Z,70.40
2019-06-26T20:15:31.383Z,71.20
2019-06-26T20:18:04.121Z,71.10
2019-06-26T20:20:32.280Z,72.10
2019-06-26T20:23:01.870Z,72.40
2019-06-26T20:25:31.460Z,73.10
2019-06-26T20:28:01.048Z,73.50
2019-06-26T20:30:33.897Z,74.00
2019-06-26T20:33:03.480Z,73.20
2019-06-26T20:35:33.057Z,73.80
2019-06-26T20:38:02.863Z,74.50
2019-06-26T20:40:32.451Z,73.30
2019-06-26T20:43:02.067Z,72.90
2019-06-26T20:45:31.720Z,71.80
2019-06-26T20:48:01.300Z,72.40
2019-06-26T20:50:30.890Z,71.80
2019-06-26T20:53:00.632Z,71.50
2019-06-26T20:55:30.726Z,71.80
2019-06-26T20:58:00.318Z,71.20
2019-06-26T21:00:29.920Z,70.60
2019-06-26T21:03:00.614Z,71.30
2019-06-26T21:05:30.199Z,71.10
2019-06-26T21:07:59.784Z,70.70
2019-06-26T21:10:29.374Z,70.60
2019-06-26T21:12:58.986Z,71.50
2019-06-26T21:15:28.596Z,71.40
2019-06-26T21:17:58.186Z,71.20
2019-06-26T21:20:29.299Z,71.70
2019-06-26T21:22:58.899Z,72.00
2019-06-26T21:25:28.484Z,72.20
2019-06-26T21:27:58.056Z,72.40
2019-06-26T21:30:29.196Z,72.50
2019-06-26T21:32:58.787Z,73.20
2019-06-26T21:35:28.376Z,72.80
2019-06-26T21:37:59.500Z,73.30
2019-06-26T21:40:29.109Z,73.60
2019-06-26T21:43:01.290Z,73.80
2019-06-26T21:45:30.862Z,73.60
2019-06-26T21:48:00.456Z,73.60
2019-06-26T21:50:30.045Z,77.90
2019-06-26T21:53:01.258Z,75.10
2019-06-26T21:55:34.828Z,74.80
2019-06-26T21:58:02.249Z,75.00
2019-06-26T22:00:33.487Z,75.10
2019-06-26T22:03:03.137Z,74.80
2019-06-26T22:05:32.875Z,75.50
2019-06-26T22:08:04.636Z,75.20
2019-06-26T22:10:34.217Z,75.80
2019-06-26T22:13:03.877Z,76.30
2019-06-26T22:15:33.632Z,75.80
2019-06-26T22:18:03.194Z,76.10
2019-06-26T22:20:34.015Z,75.80
2019-06-26T22:23:03.650Z,75.60
2019-06-26T22:25:41.143Z,75.60
2019-06-26T22:28:04.598Z,76.00
2019-06-26T22:30:34.185Z,76.00
2019-06-26T22:33:03.896Z,76.30
2019-06-26T22:35:33.837Z,76.50
2019-06-26T22:38:03.501Z,77.70
2019-06-26T22:40:33.088Z,77.70
2019-06-26T22:43:03.157Z,78.70
2019-06-26T22:45:32.806Z,77.70
2019-06-26T22:48:03.419Z,77.30
2019-06-26T22:50:33.038Z,77.50
2019-06-26T22:53:02.590Z,77.20
2019-06-26T22:55:32.254Z,77.20
2019-06-26T22:58:01.844Z,77.80
2019-06-26T23:00:31.418Z,78.10
2019-06-26T23:03:01.018Z,77.80
2019-06-26T23:05:30.614Z,78.10
2019-06-26T23:08:00.204Z,78.10
2019-06-26T23:10:29.802Z,77.90
2019-06-26T23:12:59.383Z,78.10
2019-06-26T23:15:28.979Z,78.10
2019-06-26T23:17:58.561Z,78.00
2019-06-26T23:20:28.147Z,78.70
2019-06-26T23:22:57.736Z,78.90
2019-06-26T23:25:27.323Z,79.60
2019-06-26T23:27:56.904Z,80.00
2019-06-26T23:30:27.154Z,81.00
2019-06-26T23:32:56.781Z,81.20
2019-06-26T23:35:26.354Z,81.50
2019-06-26T23:37:56.015Z,81.50
2019-06-26T23:40:25.601Z,81.60
2019-06-26T23:42:56.309Z,81.70
2019-06-26T23:45:25.910Z,80.90
2019-06-26T23:47:57.654Z,81.40
2019-06-26T23:50:27.242Z,81.50
2019-06-26T23:52:56.845Z,81.40
2019-06-26T23:55:26.427Z,81.40
2019-06-26T23:57:59.321Z,81.10
